createdAt,value
2019-01-03T06:15:23.306Z,95.67
2019-01-03T06:18:43.901Z,94.37
2019-01-03T06:22:09.446Z,88.30
2019-01-03T06:25:28.709Z,91.20
2019-01-03T06:28:47.118Z,87.77
2019-01-03T06:32:05.665Z,85.93
2019-01-03T06:35:20.249Z,84.57
2019-01-03T06:38:31.535Z,83.83
2019-01-03T06:41:53.831Z,81.30
2019-01-03T06:45:10.353Z,82.03
2019-01-03T06:48:52.132Z,78.27
2019-01-03T06:51:54.877Z,79.23
2019-01-03T06:55:22.286Z,74.87
2019-01-03T06:58:35.388Z,73.93
2019-01-03T07:01:57.982Z,71.47
2019-01-03T07:05:14.481Z,69.57
2019-01-03T07:08:41.891Z,74.33
2019-01-03T07:11:56.589Z,71.53
2019-01-03T07:15:11.915Z,68.43
2019-01-03T07:18:33.165Z,69.27
2019-01-03T07:22:03.935Z,66.57
2019-01-03T07:25:16.977Z,66.77
2019-01-03T07:28:30.214Z,62.87
2019-01-03T07:31:52.251Z,63.97
2019-01-03T07:35:06.605Z,64.47
2019-01-03T07:38:25.562Z,62.17
2019-01-03T07:41:56.802Z,60.83
2019-01-03T07:45:40.050Z,62.33
2019-01-03T07:51:27.004Z,59.90
2019-01-03T07:53:16.059Z,58.90
2019-01-03T07:56:34.977Z,61.07
2019-01-03T08:00:01.862Z,58.87
2019-01-03T08:03:35.620Z,59.10
2019-01-03T08:07:08.686Z,56.93
2019-01-03T08:10:23.295Z,56.87
2019-01-03T08:13:46.995Z,58.27
2019-01-03T08:17:00.518Z,55.27
2019-01-03T08:31:48.754Z,52.40
2019-01-03T08:35:04.151Z,52.53
2019-01-03T08:38:23.604Z,53.13
2019-01-03T08:42:08.907Z,51.17
2019-01-03T08:45:38.925Z,50.30
2019-01-03T08:49:00.473Z,52.77
2019-01-03T08:52:56.343Z,50.97
2019-01-03T08:56:14.784Z,50.03
2019-01-03T09:20:48.891Z,47.83
2019-01-03T09:28:11.675Z,46.93
2019-01-03T09:31:33.124Z,47.53
2019-01-03T09:35:01.185Z,46.30
2019-01-03T09:42:24.248Z,45.47
2019-01-03T09:45:23.507Z,46.03
2019-01-03T09:48:20.017Z,45.17
2019-01-03T09:51:18.765Z,45.57
2019-01-03T09:54:16.333Z,45.40
2019-01-03T10:00:30.623Z,45.33
2019-01-03T10:03:35.595Z,46.07
2019-01-03T10:06:46.399Z,44.47
2019-01-03T10:09:49.134Z,45.13
2019-01-03T10:12:48.218Z,44.83
2019-01-03T10:15:45.487Z,44.37
2019-01-03T10:18:42.498Z,44.77
2019-01-03T10:21:38.341Z,44.40
2019-01-03T10:24:35.185Z,45.10
2019-01-03T10:27:39.719Z,45.30
2019-01-03T10:30:39.948Z,43.67
2019-01-03T10:33:37.468Z,43.90
2019-01-03T10:37:26.023Z,41.70
2019-01-03T10:40:55.180Z,42.90
